Airport View

Enter AWOS ICAO identifier for current METAR.

ex. KFNL

KTAN 261131Z AUTO 34004KT 10SM BKN007 OVC014 22/19 A2998 RMK AO2 CIG 004V009 T02170194

26 Jun 2019 11:49

Frequency: 132.675

Phone: 508-824-5005

Other Area AWOS: KEWB - KPYM - KOWD - KGHG

TAF AMD KPVD 260859Z 2609/2706 34004KT P6SM OVC008 FM261200 36003KT P6SM BKN015 FM261300 36004KT P6SM BKN025 FM261400 36004KT P6SM BKN050 FM270200 15004KT P6SM BKN020 FM270300 15004KT P6SM BKN008